createdAt,value
2022-10-26T00:00:11.732Z,12.90
2022-10-26T00:02:41.528Z,13.01
2022-10-26T00:05:09.495Z,13.11
2022-10-26T00:07:36.437Z,13.18
2022-10-26T00:10:06.058Z,13.29
2022-10-26T00:12:33.090Z,13.34
2022-10-26T00:14:59.988Z,13.41
2022-10-26T00:17:26.961Z,13.46
2022-10-26T00:19:53.809Z,13.52
2022-10-26T00:22:20.553Z,13.55
2022-10-26T00:24:47.295Z,13.55
2022-10-26T00:27:15.663Z,13.55
2022-10-26T00:29:42.483Z,13.56
2022-10-26T00:32:14.859Z,13.60
2022-10-26T00:34:41.839Z,13.61
2022-10-26T00:37:08.768Z,13.60
2022-10-26T00:39:35.595Z,13.65
2022-10-26T00:42:02.540Z,13.55
2022-10-26T00:44:59.243Z,13.53
2022-10-26T00:47:38.304Z,13.53
2022-10-26T00:50:11.670Z,13.55
2022-10-26T00:52:39.707Z,13.58
2022-10-26T00:55:08.617Z,13.60
2022-10-26T00:57:38.785Z,13.60
2022-10-26T01:00:09.320Z,13.65
2022-10-26T01:02:36.402Z,13.67
2022-10-26T01:05:06.135Z,13.67
2022-10-26T01:07:34.266Z,13.69
2022-10-26T01:10:01.743Z,13.67
2022-10-26T01:12:28.622Z,13.67
2022-10-26T01:14:55.788Z,13.66
2022-10-26T01:17:56.436Z,13.69
2022-10-26T01:20:54.899Z,13.66
2022-10-26T01:23:33.991Z,13.66
2022-10-26T01:26:24.743Z,13.68
2022-10-26T01:29:38.644Z,13.72
2022-10-26T01:32:16.282Z,13.76
2022-10-26T01:34:51.930Z,13.76
2022-10-26T01:37:27.535Z,13.80
2022-10-26T01:40:02.325Z,13.84
2022-10-26T01:42:32.235Z,13.82
2022-10-26T01:45:06.814Z,13.80
2022-10-26T01:47:39.088Z,13.80
2022-10-26T01:50:08.888Z,13.79
2022-10-26T01:52:35.817Z,13.75
2022-10-26T01:55:07.913Z,13.64
2022-10-26T01:57:38.343Z,13.50
2022-10-26T02:00:09.602Z,13.40
2022-10-26T02:03:02.139Z,13.42
2022-10-26T02:06:06.432Z,13.45
2022-10-26T02:09:01.161Z,13.51
2022-10-26T02:11:41.120Z,13.50
2022-10-26T02:14:17.231Z,13.52
2022-10-26T02:16:55.655Z,13.53
2022-10-26T02:19:37.307Z,13.56
2022-10-26T02:22:15.797Z,13.57
2022-10-26T02:24:45.773Z,13.59
2022-10-26T02:27:19.951Z,13.62
2022-10-26T02:29:51.770Z,13.63
2022-10-26T02:32:22.281Z,13.66
2022-10-26T02:34:54.830Z,13.68
2022-10-26T02:37:25.706Z,13.75
2022-10-26T02:39:55.573Z,13.75
2022-10-26T02:42:25.683Z,13.76
2022-10-26T02:44:58.423Z,13.78
2022-10-26T02:47:26.373Z,13.76
2022-10-26T02:49:55.943Z,13.75
2022-10-26T02:52:35.017Z,13.77
2022-10-26T02:55:11.134Z,13.79
2022-10-26T02:57:41.593Z,13.78
2022-10-26T03:00:19.000Z,13.77
2022-10-26T03:02:54.079Z,13.52
2022-10-26T03:05:27.387Z,13.56
2022-10-26T03:07:56.202Z,13.51
2022-10-26T03:10:23.731Z,13.44
2022-10-26T03:12:51.458Z,13.10
2022-10-26T03:15:18.761Z,13.02
2022-10-26T03:17:45.802Z,13.04
2022-10-26T03:20:13.898Z,13.11
2022-10-26T03:22:42.152Z,13.23
2022-10-26T03:25:09.756Z,13.27
2022-10-26T03:27:36.628Z,13.22
2022-10-26T03:30:05.178Z,13.10
2022-10-26T03:32:31.969Z,12.96
2022-10-26T03:34:58.767Z,12.80
2022-10-26T03:37:26.262Z,12.65
2022-10-26T03:39:54.488Z,12.80
2022-10-26T03:42:21.917Z,12.96
2022-10-26T03:44:48.737Z,13.04
2022-10-26T03:47:21.472Z,13.17
2022-10-26T03:49:51.005Z,13.25
2022-10-26T03:52:24.172Z,13.37
2022-10-26T03:54:52.283Z,13.44
2022-10-26T03:57:23.324Z,13.51
2022-10-26T03:59:50.407Z,13.54
2022-10-26T04:02:18.830Z,13.61
2022-10-26T04:04:46.409Z,13.65
2022-10-26T04:07:13.290Z,13.55
2022-10-26T04:09:40.371Z,13.58
2022-10-26T04:12:12.036Z,13.65
2022-10-26T04:14:40.267Z,13.69
2022-10-26T04:17:07.655Z,13.75
2022-10-26T04:19:34.623Z,13.74
2022-10-26T04:22:02.702Z,13.80
2022-10-26T04:24:29.732Z,13.84
2022-10-26T04:26:56.585Z,13.83
2022-10-26T04:29:23.555Z,13.50
2022-10-26T04:31:51.765Z,13.50
2022-10-26T04:34:18.583Z,13.51
2022-10-26T04:36:49.173Z,13.51
2022-10-26T04:39:16.578Z,13.60
2022-10-26T04:41:43.437Z,13.70
2022-10-26T04:44:10.230Z,13.61
2022-10-26T04:46:37.020Z,13.66
2022-10-26T04:49:05.074Z,13.70
2022-10-26T04:51:31.907Z,13.76
2022-10-26T05:20:32.927Z,13.44
2022-10-26T05:23:03.794Z,13.64
2022-10-26T05:25:37.310Z,13.85
2022-10-26T05:28:07.082Z,13.87
2022-10-26T05:33:24.937Z,13.96
2022-10-26T05:35:54.496Z,13.99
2022-10-26T05:38:57.911Z,14.07
2022-10-26T05:41:25.001Z,14.14
2022-10-26T05:43:51.794Z,14.18
2022-10-26T05:46:22.206Z,14.25
2022-10-26T05:48:49.086Z,14.25
2022-10-26T05:51:16.113Z,14.27
2022-10-26T05:53:43.180Z,14.32
2022-10-26T05:56:58.193Z,14.10
2022-10-26T05:59:30.566Z,14.00
2022-10-26T06:02:19.208Z,13.93
2022-10-26T06:09:40.642Z,14.10
2022-10-26T06:12:19.414Z,14.16
2022-10-26T06:14:49.237Z,14.16
2022-10-26T06:17:43.586Z,14.22
2022-10-26T07:08:23.087Z,14.56
2022-10-26T07:10:51.353Z,14.67
2022-10-26T07:13:18.803Z,14.68
2022-10-26T07:15:45.661Z,14.73
2022-10-26T07:18:12.405Z,14.84
2022-10-26T07:20:41.546Z,14.95
2022-10-26T07:23:09.923Z,14.97
2022-10-26T07:26:03.530Z,15.15
2022-10-26T07:28:32.742Z,15.23
2022-10-26T07:31:06.282Z,15.32
2022-10-26T07:33:36.866Z,15.48
2022-10-26T07:36:08.551Z,15.54
2022-10-26T07:38:35.619Z,15.66
2022-10-26T07:41:04.817Z,15.60
2022-10-26T07:43:31.920Z,15.58
2022-10-26T07:45:58.707Z,15.50
2022-10-26T07:48:25.523Z,15.65
2022-10-26T07:50:52.356Z,15.77
2022-10-26T07:53:20.475Z,15.71
2022-10-26T07:55:54.010Z,15.59
2022-10-26T07:58:22.308Z,15.73
2022-10-26T08:00:49.486Z,15.79
2022-10-26T08:03:17.081Z,15.86
2022-10-26T08:05:46.215Z,15.85
2022-10-26T08:08:13.254Z,15.82
2022-10-26T08:10:42.880Z,15.75
2022-10-26T08:13:09.954Z,15.86
2022-10-26T08:15:38.789Z,16.00
2022-10-26T08:18:06.231Z,15.97
2022-10-26T08:20:33.582Z,16.01
2022-10-26T08:23:00.624Z,16.04
2022-10-26T08:25:27.824Z,16.11
2022-10-26T08:27:54.662Z,16.10
2022-10-26T08:30:21.743Z,16.20
2022-10-26T08:32:58.858Z,16.22
2022-10-26T08:35:25.832Z,16.33
2022-10-26T08:37:52.899Z,16.47
2022-10-26T08:40:25.352Z,16.29
2022-10-26T08:43:00.225Z,16.23
2022-10-26T08:45:37.068Z,16.41
2022-10-26T08:48:15.740Z,16.50
2022-10-26T08:50:53.099Z,16.46
2022-10-26T08:53:30.945Z,16.52
2022-10-26T08:56:05.995Z,16.36
2022-10-26T08:58:40.488Z,16.32
2022-10-26T09:01:08.962Z,16.32
2022-10-26T09:03:37.467Z,16.36
2022-10-26T09:06:28.474Z,16.35
2022-10-26T09:09:07.514Z,16.40
2022-10-26T09:11:56.884Z,16.47
2022-10-26T09:14:43.753Z,16.48
2022-10-26T09:17:27.699Z,16.60
2022-10-26T09:20:19.396Z,16.65
2022-10-26T09:22:57.784Z,16.67
2022-10-26T09:25:34.480Z,16.76
2022-10-26T09:28:02.450Z,17.03
2022-10-26T09:30:29.398Z,17.43
2022-10-26T09:33:02.407Z,17.64
2022-10-26T09:35:46.148Z,17.82
2022-10-26T09:38:23.354Z,18.25
2022-10-26T09:40:58.462Z,19.09
2022-10-26T09:43:31.571Z,20.93
2022-10-26T09:45:58.510Z,22.91
2022-10-26T09:48:37.939Z,23.87
2022-10-26T09:51:06.998Z,23.95
2022-10-26T09:53:33.763Z,22.16
2022-10-26T09:56:06.250Z,22.23
2022-10-26T09:58:44.631Z,24.60
2022-10-26T10:01:22.630Z,22.61
2022-10-26T10:04:16.379Z,22.60
2022-10-26T10:06:46.344Z,24.07
2022-10-26T10:09:15.761Z,22.13
2022-10-26T10:11:47.163Z,21.51
2022-10-26T10:14:17.160Z,22.53
2022-10-26T10:16:56.684Z,24.26
2022-10-26T10:19:27.639Z,24.38
2022-10-26T10:21:59.663Z,26.44
2022-10-26T10:24:31.469Z,23.43
2022-10-26T10:27:02.463Z,22.20
2022-10-26T10:29:32.620Z,22.32
2022-10-26T10:32:02.138Z,22.69
2022-10-26T10:34:32.070Z,23.60
2022-10-26T10:37:04.177Z,25.44
2022-10-26T10:39:40.574Z,25.70
2022-10-26T10:42:20.488Z,24.04
2022-10-26T10:44:53.920Z,24.88
2022-10-26T10:47:28.117Z,24.93
2022-10-26T10:50:00.706Z,25.72
2022-10-26T10:52:32.103Z,28.21
2022-10-26T10:55:17.945Z,28.02
2022-10-26T10:58:21.534Z,27.70
2022-10-26T11:00:48.839Z,27.24
2022-10-26T11:03:42.469Z,28.28
2022-10-26T11:06:17.404Z,29.47
2022-10-26T11:08:52.484Z,27.79
2022-10-26T11:11:25.848Z,28.66
2022-10-26T11:14:01.670Z,28.10
2022-10-26T11:16:35.976Z,27.36
2022-10-26T11:19:16.753Z,28.37
2022-10-26T11:21:51.217Z,27.55
2022-10-26T11:24:29.826Z,28.77
2022-10-26T11:27:04.262Z,29.44
2022-10-26T11:29:48.349Z,28.64
2022-10-26T11:32:41.435Z,27.93
2022-10-26T11:35:18.462Z,26.89
2022-10-26T11:38:07.675Z,26.30
2022-10-26T11:40:55.245Z,25.48
2022-10-26T11:43:30.875Z,25.01
2022-10-26T11:46:09.263Z,24.21
2022-10-26T11:48:45.004Z,24.01
2022-10-26T11:51:20.241Z,23.82
2022-10-26T11:53:49.546Z,23.78
2022-10-26T11:56:31.160Z,23.91
2022-10-26T12:01:30.394Z,23.93
2022-10-26T12:04:02.838Z,23.97
2022-10-26T12:06:51.467Z,23.92
2022-10-26T12:09:26.992Z,23.95
2022-10-26T12:12:41.653Z,24.08
2022-10-26T12:15:30.914Z,24.10
2022-10-26T12:18:36.871Z,23.54
2022-10-26T12:21:10.519Z,23.67
2022-10-26T12:23:54.763Z,23.48
2022-10-26T12:26:58.757Z,23.41
2022-10-26T12:29:32.138Z,23.42
2022-10-26T12:31:59.440Z,23.11
2022-10-26T12:34:59.845Z,22.95
2022-10-26T12:40:45.385Z,23.18
2022-10-26T12:43:37.646Z,23.10
2022-10-26T12:46:45.663Z,23.08
2022-10-26T12:50:09.464Z,23.11
2022-10-26T12:52:52.336Z,23.14
2022-10-26T12:56:04.158Z,23.23
2022-10-26T12:59:21.436Z,23.32
2022-10-26T13:19:54.802Z,23.26
2022-10-26T13:49:34.883Z,22.78
2022-10-26T15:33:34.345Z,21.30
2022-10-26T15:37:15.027Z,21.27
2022-10-26T15:40:08.007Z,21.16
2022-10-26T15:43:11.026Z,21.13
2022-10-26T15:46:00.985Z,21.00
2022-10-26T15:48:39.009Z,20.97
2022-10-26T15:52:12.968Z,20.85
2022-10-26T16:08:58.564Z,20.27
2022-10-26T16:12:57.453Z,20.14
2022-10-26T16:15:31.108Z,20.01
2022-10-26T16:18:05.155Z,19.85
2022-10-26T16:20:45.598Z,19.71
2022-10-26T16:23:12.739Z,19.61
2022-10-26T16:25:44.843Z,19.53
2022-10-26T16:28:15.899Z,19.45
2022-10-26T16:30:44.318Z,19.39
2022-10-26T16:33:11.229Z,19.28
2022-10-26T16:35:38.186Z,19.17
2022-10-26T16:38:05.234Z,19.07
2022-10-26T16:40:32.319Z,18.89
2022-10-26T16:43:00.762Z,18.72
2022-10-26T16:45:43.977Z,18.68
2022-10-26T16:48:21.076Z,18.66
2022-10-26T16:51:26.922Z,18.54
2022-10-26T16:54:07.560Z,18.49
2022-10-26T16:57:13.106Z,18.46
2022-10-26T16:59:41.481Z,18.39
2022-10-26T17:02:12.670Z,18.28
2022-10-26T17:04:39.727Z,18.26
2022-10-26T17:07:06.683Z,18.17
2022-10-26T17:09:33.767Z,18.04
2022-10-26T17:12:02.056Z,17.79
2022-10-26T17:14:29.363Z,17.44
2022-10-26T17:17:05.697Z,17.11
2022-10-26T17:19:35.647Z,16.98
2022-10-26T17:22:12.310Z,16.83
2022-10-26T17:33:50.989Z,16.55
2022-10-26T17:37:11.165Z,16.38
2022-10-26T20:20:12.690Z,15.23
2022-10-26T20:22:39.751Z,15.20
2022-10-26T20:25:07.654Z,15.02
2022-10-26T20:27:35.187Z,14.79
2022-10-26T20:30:03.634Z,14.77
2022-10-26T20:32:33.019Z,14.64
2022-10-26T20:34:59.870Z,14.66
2022-10-26T20:37:30.313Z,14.73
2022-10-26T20:39:58.563Z,14.72
2022-10-26T20:42:27.949Z,14.74
2022-10-26T20:45:06.932Z,14.76
2022-10-26T20:47:35.179Z,14.75
2022-10-26T20:50:05.322Z,14.76
2022-10-26T20:52:40.754Z,14.70
2022-10-26T20:55:20.352Z,14.64
2022-10-26T20:57:57.984Z,14.61
2022-10-26T21:00:25.852Z,14.54
2022-10-26T21:02:52.834Z,14.54
2022-10-26T21:05:19.706Z,14.56
2022-10-26T21:07:48.139Z,14.59
2022-10-26T21:10:15.208Z,14.47
2022-10-26T21:12:41.964Z,14.31
2022-10-26T21:15:09.850Z,14.33
2022-10-26T21:17:36.588Z,14.35
2022-10-26T21:20:03.421Z,14.45
2022-10-26T21:22:30.151Z,14.50
2022-10-26T21:24:58.456Z,14.55
2022-10-26T21:27:25.189Z,14.55
2022-10-26T21:29:51.920Z,14.50
2022-10-26T21:32:18.711Z,14.52
2022-10-26T21:34:45.573Z,14.39
2022-10-26T21:37:12.322Z,14.35
2022-10-26T21:39:39.283Z,14.40
2022-10-26T21:42:07.451Z,14.43
2022-10-26T21:44:41.011Z,14.45
2022-10-26T21:47:08.948Z,14.47
2022-10-26T21:49:35.825Z,14.39
2022-10-26T21:52:03.189Z,14.35
2022-10-26T21:54:29.973Z,14.39
2022-10-26T21:56:56.812Z,14.38
2022-10-26T21:59:25.383Z,14.25
2022-10-26T22:01:52.356Z,14.18
2022-10-26T22:04:19.335Z,14.16
2022-10-26T22:06:46.200Z,14.15
2022-10-26T22:09:12.996Z,14.18
2022-10-26T22:11:39.852Z,14.20
2022-10-26T22:14:06.614Z,14.20
2022-10-26T22:16:34.883Z,14.19
2022-10-26T22:19:06.571Z,14.16
2022-10-26T22:21:39.233Z,14.15
2022-10-26T22:24:08.042Z,14.11
2022-10-26T22:26:37.001Z,14.09
2022-10-26T22:29:04.983Z,13.88
2022-10-26T22:31:37.493Z,13.80
2022-10-26T22:34:07.922Z,13.75
2022-10-26T22:36:35.690Z,13.77
2022-10-26T22:39:02.768Z,13.78
2022-10-26T22:41:29.604Z,13.77
2022-10-26T22:43:56.415Z,13.79
2022-10-26T22:46:26.099Z,13.70
2022-10-26T22:48:56.671Z,13.66
2022-10-26T22:51:25.740Z,13.68
2022-10-26T22:53:53.831Z,13.58
2022-10-26T22:56:22.020Z,13.37
2022-10-26T22:58:49.239Z,13.31
2022-10-26T23:01:18.570Z,13.28
2022-10-26T23:03:45.580Z,13.32
2022-10-26T23:06:16.432Z,13.39
2022-10-26T23:08:43.699Z,13.38
2022-10-26T23:11:14.438Z,13.39
2022-10-26T23:13:41.359Z,13.46
2022-10-26T23:16:11.174Z,13.44
2022-10-26T23:18:38.854Z,13.34
2022-10-26T23:21:09.022Z,13.35
2022-10-26T23:23:37.875Z,13.32
2022-10-26T23:26:07.614Z,13.32
2022-10-26T23:28:35.958Z,13.18
2022-10-26T23:31:03.269Z,13.08
2022-10-26T23:33:30.695Z,13.17
2022-10-26T23:35:57.580Z,13.28
2022-10-26T23:38:24.901Z,13.34
2022-10-26T23:40:56.689Z,13.37
2022-10-26T23:43:24.630Z,13.39
2022-10-26T23:45:51.779Z,13.32
2022-10-26T23:48:19.161Z,13.29
2022-10-26T23:50:48.482Z,13.31
2022-10-26T23:53:18.519Z,13.32
2022-10-26T23:55:46.463Z,13.22
2022-10-26T23:58:16.696Z,13.04
